createdAt,value
2023-03-25T00:00:28.828Z,50.75
2023-03-25T00:03:06.956Z,50.54
2023-03-25T00:05:48.953Z,50.72
2023-03-25T00:08:34.863Z,50.70
2023-03-25T00:11:06.565Z,50.73
2023-03-25T00:13:41.415Z,50.43
2023-03-25T00:16:12.259Z,50.41
2023-03-25T00:18:41.465Z,50.28
2023-03-25T00:21:11.161Z,50.06
2023-03-25T00:23:41.868Z,50.24
2023-03-25T00:26:13.798Z,50.26
2023-03-25T00:28:44.040Z,50.13
2023-03-25T00:31:19.848Z,50.13
2023-03-25T00:33:50.799Z,50.20
2023-03-25T00:36:22.153Z,50.23
2023-03-25T00:38:51.394Z,50.06
2023-03-25T00:41:25.489Z,49.70
2023-03-25T00:43:58.631Z,49.82
2023-03-25T00:46:30.191Z,49.58
2023-03-25T00:49:04.792Z,49.96
2023-03-25T00:51:53.189Z,49.94
2023-03-25T00:54:36.670Z,50.06
2023-03-25T01:00:06.539Z,50.00
2023-03-25T01:02:39.792Z,49.86
2023-03-25T01:05:34.909Z,49.83
2023-03-25T01:08:29.134Z,50.01
2023-03-25T01:13:42.804Z,50.49
2023-03-25T01:16:18.468Z,50.40
2023-03-25T01:18:46.748Z,50.52
2023-03-25T01:21:17.401Z,50.69
2023-03-25T01:23:46.584Z,50.11
2023-03-25T01:26:17.660Z,50.74
2023-03-25T01:28:51.240Z,50.75
2023-03-25T01:31:25.488Z,50.69
2023-03-25T01:33:56.605Z,50.83
2023-03-25T01:36:29.777Z,50.96
2023-03-25T01:39:04.548Z,50.71
2023-03-25T01:41:49.197Z,51.12
2023-03-25T01:45:10.373Z,51.06
2023-03-25T01:47:40.760Z,51.19
2023-03-25T01:50:15.446Z,51.08
2023-03-25T01:52:57.274Z,50.80
2023-03-25T01:58:29.147Z,51.11
2023-03-25T02:01:11.594Z,51.03
2023-03-25T02:03:58.604Z,50.73
2023-03-25T02:06:38.487Z,50.62
2023-03-25T02:09:12.452Z,50.73
2023-03-25T02:11:42.746Z,50.90
2023-03-25T02:14:20.789Z,50.80
2023-03-25T02:17:15.037Z,50.96
2023-03-25T02:20:14.890Z,51.12
2023-03-25T02:23:22.515Z,50.83
2023-03-25T02:26:21.311Z,50.79
2023-03-25T02:28:59.840Z,50.78
2023-03-25T02:31:45.461Z,50.60
2023-03-25T02:34:57.648Z,50.86
2023-03-25T02:37:59.978Z,50.94
2023-03-25T02:40:38.904Z,50.77
2023-03-25T02:43:22.437Z,50.71
2023-03-25T02:45:59.273Z,50.57
2023-03-25T02:48:35.465Z,50.65
2023-03-25T02:51:11.753Z,50.54
2023-03-25T02:53:44.521Z,50.76
2023-03-25T02:56:17.239Z,50.94
2023-03-25T02:58:47.912Z,50.90
2023-03-25T03:01:16.647Z,50.88
2023-03-25T03:03:45.308Z,51.15
2023-03-25T03:06:18.591Z,51.27
2023-03-25T03:09:13.614Z,51.13
2023-03-25T03:11:53.559Z,51.08
2023-03-25T03:14:49.677Z,51.13
2023-03-25T03:17:24.285Z,51.07
2023-03-25T03:19:57.478Z,50.81
2023-03-25T03:22:38.796Z,50.88
2023-03-25T03:25:16.606Z,51.07
2023-03-25T03:27:51.149Z,51.59
2023-03-25T03:30:23.776Z,51.03
2023-03-25T03:32:58.637Z,50.56
2023-03-25T03:35:32.863Z,50.26
2023-03-25T03:38:09.789Z,50.24
2023-03-25T03:40:47.488Z,49.91
2023-03-25T03:43:25.801Z,50.40
2023-03-25T03:46:01.868Z,50.21
2023-03-25T03:48:38.352Z,50.38
2023-03-25T03:51:25.248Z,50.55
2023-03-25T03:54:24.191Z,50.67
2023-03-25T03:57:02.146Z,50.85
2023-03-25T03:59:43.095Z,51.15
2023-03-25T04:02:19.438Z,51.27
2023-03-25T04:04:47.738Z,51.55
2023-03-25T04:07:25.178Z,51.68
2023-03-25T04:10:03.998Z,51.69
2023-03-25T04:12:46.693Z,51.90
2023-03-25T04:15:19.273Z,51.91
2023-03-25T04:17:55.450Z,52.09
2023-03-25T04:20:38.009Z,52.07
2023-03-25T04:23:06.512Z,51.82
2023-03-25T04:25:36.196Z,51.82
2023-03-25T04:28:41.367Z,51.67
2023-03-25T04:31:23.635Z,51.77
2023-03-25T04:33:54.217Z,51.66
2023-03-25T04:39:23.440Z,51.41
2023-03-25T04:41:57.950Z,51.84
2023-03-25T04:44:36.804Z,51.43
2023-03-25T04:47:38.433Z,51.31
2023-03-25T04:50:35.550Z,51.41
2023-03-25T04:53:24.436Z,51.49
2023-03-25T04:56:00.484Z,51.45
2023-03-25T04:58:48.269Z,51.26
2023-03-25T05:01:53.047Z,51.32
2023-03-25T05:07:46.537Z,51.17
2023-03-25T05:10:18.478Z,51.09
2023-03-25T05:12:47.362Z,51.10
2023-03-25T05:15:31.555Z,51.13
2023-03-25T05:18:04.240Z,51.32
2023-03-25T05:20:38.105Z,51.22
2023-03-25T05:23:12.726Z,51.31
2023-03-25T05:25:44.896Z,51.75
2023-03-25T05:28:15.656Z,52.02
2023-03-25T05:30:49.056Z,51.89
2023-03-25T05:33:24.349Z,51.69
2023-03-25T05:35:59.405Z,51.60
2023-03-25T05:38:27.884Z,51.73
2023-03-25T05:41:00.699Z,51.59
2023-03-25T05:43:43.482Z,51.91
2023-03-25T05:46:12.549Z,52.24
2023-03-25T05:48:47.616Z,52.07
2023-03-25T05:51:22.036Z,52.33
2023-03-25T05:53:51.111Z,52.45
2023-03-25T05:56:47.174Z,53.44
2023-03-25T05:59:16.787Z,53.74
2023-03-25T06:05:06.770Z,54.85
2023-03-25T06:08:02.166Z,55.26
2023-03-25T06:10:31.937Z,55.25
2023-03-25T06:13:01.304Z,55.41
2023-03-25T06:15:34.218Z,55.13
2023-03-25T06:18:03.216Z,55.12
2023-03-25T06:23:19.350Z,54.65
2023-03-25T06:25:50.153Z,54.63
2023-03-25T06:28:20.032Z,54.45
2023-03-25T06:31:15.413Z,54.28
2023-03-25T06:33:55.777Z,54.13
2023-03-25T06:36:25.821Z,54.28
2023-03-25T06:38:58.833Z,54.21
2023-03-25T06:41:38.107Z,53.83
2023-03-25T06:44:08.718Z,53.63
2023-03-25T06:47:15.148Z,53.47
2023-03-25T06:49:49.784Z,54.12
2023-03-25T06:53:07.090Z,53.94
2023-03-25T06:56:05.636Z,54.10
2023-03-25T06:58:35.824Z,54.45
2023-03-25T07:01:07.693Z,54.23
2023-03-25T07:03:46.400Z,54.47
2023-03-25T07:06:18.847Z,54.66
2023-03-25T07:08:55.437Z,54.64
2023-03-25T07:17:10.624Z,54.16
2023-03-25T07:19:39.173Z,54.25
2023-03-25T07:22:08.342Z,54.82
2023-03-25T07:24:48.072Z,54.51
2023-03-25T07:27:17.749Z,54.86
2023-03-25T07:29:46.780Z,54.04
2023-03-25T07:32:19.099Z,54.15
2023-03-25T07:34:48.966Z,53.94
2023-03-25T07:37:18.241Z,53.78
2023-03-25T07:39:47.307Z,53.80
2023-03-25T07:42:18.721Z,54.00
2023-03-25T07:44:49.268Z,53.83
2023-03-25T07:47:19.205Z,53.81
2023-03-25T07:49:50.249Z,53.69
2023-03-25T07:52:18.662Z,53.42
2023-03-25T07:54:47.247Z,53.31
2023-03-25T07:57:15.816Z,53.10
2023-03-25T07:59:46.056Z,52.90
2023-03-25T08:02:17.060Z,52.98
2023-03-25T08:04:49.888Z,53.07
2023-03-25T08:07:18.826Z,52.93
2023-03-25T08:09:47.450Z,52.98
2023-03-25T08:12:16.457Z,52.33
2023-03-25T08:14:47.413Z,52.06
2023-03-25T08:17:20.596Z,52.03
2023-03-25T08:19:58.270Z,51.64
2023-03-25T08:22:27.627Z,52.45
2023-03-25T08:24:56.593Z,52.30
2023-03-25T08:27:28.082Z,52.12
2023-03-25T08:30:00.218Z,52.16
2023-03-25T08:32:29.677Z,52.43
2023-03-25T08:37:43.585Z,52.14
2023-03-25T08:40:12.661Z,52.29
2023-03-25T08:42:41.148Z,52.51
2023-03-25T08:45:11.229Z,52.43
2023-03-25T08:47:40.193Z,52.32
2023-03-25T08:50:11.130Z,52.54
2023-03-25T08:52:42.592Z,52.35
2023-03-25T08:55:16.512Z,51.97
2023-03-25T08:57:47.347Z,51.63
2023-03-25T09:00:19.019Z,52.23
2023-03-25T09:02:52.335Z,52.17
2023-03-25T09:05:21.481Z,51.73
2023-03-25T09:46:05.528Z,50.99
2023-03-25T09:48:40.076Z,51.10
2023-03-25T09:51:14.774Z,50.87
2023-03-25T09:53:50.376Z,50.28
2023-03-25T09:56:22.816Z,49.93
2023-03-25T09:58:54.001Z,50.11
2023-03-25T10:01:35.187Z,50.10
2023-03-25T10:04:29.132Z,49.62
2023-03-25T10:07:05.412Z,48.80
2023-03-25T10:09:46.809Z,48.60
2023-03-25T10:12:30.276Z,50.45
2023-03-25T10:15:25.266Z,51.66
2023-03-25T13:01:15.375Z,45.51
2023-03-25T15:13:04.899Z,44.67
2023-03-25T15:24:15.757Z,42.85
2023-03-25T15:30:05.916Z,44.03
2023-03-25T15:32:50.115Z,44.54
2023-03-25T22:28:42.506Z,54.18
2023-03-25T22:31:14.074Z,53.83
2023-03-25T22:33:46.565Z,54.23
2023-03-25T22:36:17.635Z,54.53
2023-03-25T22:38:51.675Z,54.20
2023-03-25T22:41:22.839Z,54.25
2023-03-25T22:43:56.001Z,53.81
2023-03-25T22:46:28.395Z,54.76
2023-03-25T22:49:05.680Z,54.40
2023-03-25T22:51:34.366Z,54.05
2023-03-25T22:56:48.267Z,53.77
2023-03-25T22:59:18.875Z,54.19
